Wolfsberg, Austria
Current Conditions -  °F | °C
As of 10:50 PM on Friday 24 Oct 2014 (Local Time) from LOXZ Reporting Station
Broken Clouds Broken Clouds  
Wind Chill: 41°   Ceiling: 5000
Heat Index: 41°   Visibility: 9mi
Dew Point: 37°   Wind: 1mph
Humidity: 87%   Direction: NA
Pressure: 30.12"   Gusts: NA
Location:  46.85°N, 14.85°E
Report Text: LOXZ 242050Z VRB01KT 15KM FEW020SC BKN050SC 05/03 Q1020 RMKBKN
Loading
Personal Weather Stations






























Interactive Weather Map
Tropical Storm Tracking
New forecast layout! Learn more

10-Day Weather Forecast

Advertisements
Track Severe Weather on mobile